sensor_id;sensor_type;location;lat;lon;timestamp;P1;durP1;ratioP1;P2;durP2;ratioP2
24153;SDS011;12312;53.362;-1.518;2023-11-21T00:01:31;1.17;;;0.70;;
24153;SDS011;12312;53.362;-1.518;2023-11-21T00:04:16;1.23;;;0.60;;
24153;SDS011;12312;53.362;-1.518;2023-11-21T00:07:00;2.03;;;0.60;;
24153;SDS011;12312;53.362;-1.518;2023-11-21T00:09:44;1.48;;;0.95;;
24153;SDS011;12312;53.362;-1.518;2023-11-21T00:12:28;1.35;;;0.80;;
24153;SDS011;12312;53.362;-1.518;2023-11-21T00:15:13;0.75;;;0.60;;
24153;SDS011;12312;53.362;-1.518;2023-11-21T00:17:57;0.50;;;0.50;;
24153;SDS011;12312;53.362;-1.518;2023-11-21T00:20:41;0.50;;;0.50;;
24153;SDS011;12312;53.362;-1.518;2023-11-21T00:23:25;2.17;;;0.50;;
24153;SDS011;12312;53.362;-1.518;2023-11-21T00:26:09;1.17;;;0.50;;
24153;SDS011;12312;53.362;-1.518;2023-11-21T00:28:53;2.42;;;0.60;;
24153;SDS011;12312;53.362;-1.518;2023-11-21T00:31:37;3.30;;;0.70;;
24153;SDS011;12312;53.362;-1.518;2023-11-21T00:34:22;1.48;;;0.60;;
24153;SDS011;12312;53.362;-1.518;2023-11-21T00:37:06;1.00;;;0.70;;
24153;SDS011;12312;53.362;-1.518;2023-11-21T00:39:51;0.60;;;0.50;;
24153;SDS011;12312;53.362;-1.518;2023-11-21T00:42:35;0.57;;;0.50;;
24153;SDS011;12312;53.362;-1.518;2023-11-21T00:45:19;1.45;;;0.70;;
24153;SDS011;12312;53.362;-1.518;2023-11-21T00:48:03;0.52;;;0.43;;
24153;SDS011;12312;53.362;-1.518;2023-11-21T00:50:48;5.60;;;0.65;;
24153;SDS011;12312;53.362;-1.518;2023-11-21T00:53:34;1.55;;;0.73;;
24153;SDS011;12312;53.362;-1.518;2023-11-21T00:56:18;1.25;;;0.80;;
24153;SDS011;12312;53.362;-1.518;2023-11-21T00:59:02;1.05;;;0.50;;
24153;SDS011;12312;53.362;-1.518;2023-11-21T01:01:48;0.65;;;0.45;;
24153;SDS011;12312;53.362;-1.518;2023-11-21T01:04:32;0.80;;;0.50;;
24153;SDS011;12312;53.362;-1.518;2023-11-21T01:07:17;4.00;;;0.68;;
24153;SDS011;12312;53.362;-1.518;2023-11-21T01:10:03;0.40;;;0.40;;
24153;SDS011;12312;53.362;-1.518;2023-11-21T01:12:51;1.50;;;0.40;;
24153;SDS011;12312;53.362;-1.518;2023-11-21T01:15:35;3.38;;;0.57;;
24153;SDS011;12312;53.362;-1.518;2023-11-21T01:18:19;0.32;;;0.32;;
24153;SDS011;12312;53.362;-1.518;2023-11-21T01:21:03;3.45;;;0.70;;
24153;SDS011;12312;53.362;-1.518;2023-11-21T01:23:47;2.83;;;0.55;;
24153;SDS011;12312;53.362;-1.518;2023-11-21T01:26:31;7.97;;;0.77;;
24153;SDS011;12312;53.362;-1.518;2023-11-21T01:29:15;2.30;;;0.60;;
24153;SDS011;12312;53.362;-1.518;2023-11-21T01:31:59;0.60;;;0.47;;
24153;SDS011;12312;53.362;-1.518;2023-11-21T01:34:43;0.80;;;0.60;;
24153;SDS011;12312;53.362;-1.518;2023-11-21T01:37:27;1.20;;;0.77;;
24153;SDS011;12312;53.362;-1.518;2023-11-21T01:40:14;2.90;;;0.47;;
24153;SDS011;12312;53.362;-1.518;2023-11-21T01:42:58;0.93;;;0.40;;
24153;SDS011;12312;53.362;-1.518;2023-11-21T01:45:42;1.52;;;0.40;;
24153;SDS011;12312;53.362;-1.518;2023-11-21T01:48:26;6.63;;;0.90;;
24153;SDS011;12312;53.362;-1.518;2023-11-21T01:51:12;0.47;;;0.47;;
24153;SDS011;12312;53.362;-1.518;2023-11-21T01:53:56;0.88;;;0.60;;
24153;SDS011;12312;53.362;-1.518;2023-11-21T01:56:40;0.95;;;0.60;;
24153;SDS011;12312;53.362;-1.518;2023-11-21T01:59:23;1.60;;;0.45;;
24153;SDS011;12312;53.362;-1.518;2023-11-21T02:02:10;2.25;;;0.70;;
24153;SDS011;12312;53.362;-1.518;2023-11-21T02:04:54;2.30;;;1.10;;
24153;SDS011;12312;53.362;-1.518;2023-11-21T02:07:39;0.40;;;0.40;;
24153;SDS011;12312;53.362;-1.518;2023-11-21T02:10:23;2.38;;;0.70;;
24153;SDS011;12312;53.362;-1.518;2023-11-21T02:13:08;1.40;;;0.50;;
24153;SDS011;12312;53.362;-1.518;2023-11-21T02:15:52;0.95;;;0.50;;
24153;SDS011;12312;53.362;-1.518;2023-11-21T02:18:38;0.40;;;0.40;;
24153;SDS011;12312;53.362;-1.518;2023-11-21T02:21:23;3.08;;;0.80;;
24153;SDS011;12312;53.362;-1.518;2023-11-21T02:24:09;3.40;;;0.57;;
24153;SDS011;12312;53.362;-1.518;2023-11-21T02:26:53;3.05;;;0.70;;
24153;SDS011;12312;53.362;-1.518;2023-11-21T02:29:38;1.88;;;0.40;;
24153;SDS011;12312;53.362;-1.518;2023-11-21T02:32:22;0.57;;;0.32;;
24153;SDS011;12312;53.362;-1.518;2023-11-21T02:35:08;0.30;;;0.30;;
24153;SDS011;12312;53.362;-1.518;2023-11-21T02:37:53;1.70;;;0.55;;
24153;SDS011;12312;53.362;-1.518;2023-11-21T02:40:38;1.30;;;0.60;;
24153;SDS011;12312;53.362;-1.518;2023-11-21T02:43:22;2.22;;;0.50;;
24153;SDS011;12312;53.362;-1.518;2023-11-21T02:46:06;1.15;;;0.70;;
24153;SDS011;12312;53.362;-1.518;2023-11-21T02:48:52;0.75;;;0.45;;
24153;SDS011;12312;53.362;-1.518;2023-11-21T02:51:40;0.90;;;0.60;;
24153;SDS011;12312;53.362;-1.518;2023-11-21T02:54:23;5.93;;;1.00;;
24153;SDS011;12312;53.362;-1.518;2023-11-21T02:57:07;1.20;;;0.60;;
24153;SDS011;12312;53.362;-1.518;2023-11-21T02:59:52;0.80;;;0.43;;
24153;SDS011;12312;53.362;-1.518;2023-11-21T03:02:36;1.10;;;0.77;;
24153;SDS011;12312;53.362;-1.518;2023-11-21T03:05:22;3.15;;;0.55;;
24153;SDS011;12312;53.362;-1.518;2023-11-21T03:08:06;3.45;;;1.23;;
24153;SDS011;12312;53.362;-1.518;2023-11-21T03:10:50;1.00;;;0.65;;
24153;SDS011;12312;53.362;-1.518;2023-11-21T03:13:34;2.65;;;0.70;;
24153;SDS011;12312;53.362;-1.518;2023-11-21T03:16:18;2.15;;;0.90;;
24153;SDS011;12312;53.362;-1.518;2023-11-21T03:19:03;1.40;;;0.60;;
24153;SDS011;12312;53.362;-1.518;2023-11-21T03:21:47;1.60;;;0.40;;
24153;SDS011;12312;53.362;-1.518;2023-11-21T03:24:31;0.52;;;0.50;;
24153;SDS011;12312;53.362;-1.518;2023-11-21T03:27:15;1.33;;;0.45;;
24153;SDS011;12312;53.362;-1.518;2023-11-21T03:29:59;1.45;;;0.50;;
24153;SDS011;12312;53.362;-1.518;2023-11-21T03:32:43;0.68;;;0.50;;
24153;SDS011;12312;53.362;-1.518;2023-11-21T03:35:27;1.75;;;0.40;;
24153;SDS011;12312;53.362;-1.518;2023-11-21T03:38:11;0.20;;;0.20;;
24153;SDS011;12312;53.362;-1.518;2023-11-21T03:40:56;0.40;;;0.40;;
24153;SDS011;12312;53.362;-1.518;2023-11-21T03:43:40;0.30;;;0.30;;
24153;SDS011;12312;53.362;-1.518;2023-11-21T03:46:24;0.35;;;0.35;;
24153;SDS011;12312;53.362;-1.518;2023-11-21T03:49:07;0.28;;;0.25;;
24153;SDS011;12312;53.362;-1.518;2023-11-21T03:51:51;3.60;;;0.50;;
24153;SDS011;12312;53.362;-1.518;2023-11-21T03:54:35;0.52;;;0.52;;
24153;SDS011;12312;53.362;-1.518;2023-11-21T03:57:20;0.30;;;0.30;;
24153;SDS011;12312;53.362;-1.518;2023-11-21T04:00:05;0.30;;;0.30;;
24153;SDS011;12312;53.362;-1.518;2023-11-21T04:02:52;0.38;;;0.30;;
24153;SDS011;12312;53.362;-1.518;2023-11-21T04:05:36;0.65;;;0.40;;
24153;SDS011;12312;53.362;-1.518;2023-11-21T04:08:20;0.50;;;0.50;;
24153;SDS011;12312;53.362;-1.518;2023-11-21T04:11:04;0.40;;;0.40;;
24153;SDS011;12312;53.362;-1.518;2023-11-21T04:13:48;0.30;;;0.30;;
24153;SDS011;12312;53.362;-1.518;2023-11-21T04:16:32;0.38;;;0.38;;
24153;SDS011;12312;53.362;-1.518;2023-11-21T04:19:17;0.30;;;0.30;;
24153;SDS011;12312;53.362;-1.518;2023-11-21T04:22:01;0.57;;;0.40;;
24153;SDS011;12312;53.362;-1.518;2023-11-21T04:24:45;0.35;;;0.35;;
24153;SDS011;12312;53.362;-1.518;2023-11-21T04:27:29;0.25;;;0.25;;
24153;SDS011;12312;53.362;-1.518;2023-11-21T04:30:13;0.47;;;0.30;;
24153;SDS011;12312;53.362;-1.518;2023-11-21T04:32:58;0.30;;;0.20;;
24153;SDS011;12312;53.362;-1.518;2023-11-21T04:35:42;0.30;;;0.30;;
24153;SDS011;12312;53.362;-1.518;2023-11-21T04:38:27;0.30;;;0.30;;
24153;SDS011;12312;53.362;-1.518;2023-11-21T04:41:10;0.68;;;0.40;;
24153;SDS011;12312;53.362;-1.518;2023-11-21T04:43:55;0.38;;;0.38;;
24153;SDS011;12312;53.362;-1.518;2023-11-21T04:46:39;0.47;;;0.47;;
24153;SDS011;12312;53.362;-1.518;2023-11-21T04:49:23;0.20;;;0.20;;
24153;SDS011;12312;53.362;-1.518;2023-11-21T04:52:07;0.70;;;0.47;;
24153;SDS011;12312;53.362;-1.518;2023-11-21T04:54:53;0.47;;;0.38;;
24153;SDS011;12312;53.362;-1.518;2023-11-21T04:57:38;0.70;;;0.40;;
24153;SDS011;12312;53.362;-1.518;2023-11-21T05:00:25;0.30;;;0.30;;
24153;SDS011;12312;53.362;-1.518;2023-11-21T05:03:09;0.30;;;0.30;;
24153;SDS011;12312;53.362;-1.518;2023-11-21T05:05:53;0.55;;;0.50;;
24153;SDS011;12312;53.362;-1.518;2023-11-21T05:08:37;0.63;;;0.40;;
24153;SDS011;12312;53.362;-1.518;2023-11-21T05:11:28;0.40;;;0.32;;
24153;SDS011;12312;53.362;-1.518;2023-11-21T05:14:16;0.50;;;0.40;;
24153;SDS011;12312;53.362;-1.518;2023-11-21T05:17:01;0.60;;;0.60;;
24153;SDS011;12312;53.362;-1.518;2023-11-21T05:19:48;0.40;;;0.30;;
24153;SDS011;12312;53.362;-1.518;2023-11-21T05:22:32;0.52;;;0.45;;
24153;SDS011;12312;53.362;-1.518;2023-11-21T05:25:17;1.60;;;0.50;;
24153;SDS011;12312;53.362;-1.518;2023-11-21T05:28:04;1.27;;;0.50;;
24153;SDS011;12312;53.362;-1.518;2023-11-21T05:30:48;0.57;;;0.45;;
24153;SDS011;12312;53.362;-1.518;2023-11-21T05:33:33;1.48;;;0.65;;
24153;SDS011;12312;53.362;-1.518;2023-11-21T05:36:17;2.25;;;0.55;;
24153;SDS011;12312;53.362;-1.518;2023-11-21T05:39:01;0.90;;;0.65;;
24153;SDS011;12312;53.362;-1.518;2023-11-21T05:41:48;0.63;;;0.60;;
24153;SDS011;12312;53.362;-1.518;2023-11-21T05:44:32;1.33;;;0.77;;
24153;SDS011;12312;53.362;-1.518;2023-11-21T05:47:16;0.85;;;0.65;;
24153;SDS011;12312;53.362;-1.518;2023-11-21T05:50:00;4.43;;;0.90;;
24153;SDS011;12312;53.362;-1.518;2023-11-21T05:52:45;0.70;;;0.60;;
24153;SDS011;12312;53.362;-1.518;2023-11-21T05:55:30;2.83;;;0.93;;
24153;SDS011;12312;53.362;-1.518;2023-11-21T05:58:15;1.90;;;0.75;;
24153;SDS011;12312;53.362;-1.518;2023-11-21T06:00:58;2.38;;;0.88;;
24153;SDS011;12312;53.362;-1.518;2023-11-21T06:03:42;0.88;;;0.77;;
24153;SDS011;12312;53.362;-1.518;2023-11-21T06:06:27;2.88;;;0.73;;
24153;SDS011;12312;53.362;-1.518;2023-11-21T06:09:12;3.63;;;0.93;;
24153;SDS011;12312;53.362;-1.518;2023-11-21T06:11:57;2.13;;;0.60;;
24153;SDS011;12312;53.362;-1.518;2023-11-21T06:14:42;2.42;;;1.15;;
24153;SDS011;12312;53.362;-1.518;2023-11-21T06:17:26;0.95;;;0.75;;
24153;SDS011;12312;53.362;-1.518;2023-11-21T06:20:11;0.98;;;0.70;;
24153;SDS011;12312;53.362;-1.518;2023-11-21T06:22:59;1.13;;;0.90;;
24153;SDS011;12312;53.362;-1.518;2023-11-21T06:25:47;3.67;;;1.02;;
24153;SDS011;12312;53.362;-1.518;2023-11-21T06:28:31;2.63;;;1.05;;
24153;SDS011;12312;53.362;-1.518;2023-11-21T06:31:15;5.60;;;0.70;;
24153;SDS011;12312;53.362;-1.518;2023-11-21T06:33:59;1.88;;;1.27;;
24153;SDS011;12312;53.362;-1.518;2023-11-21T06:36:43;4.60;;;1.05;;
24153;SDS011;12312;53.362;-1.518;2023-11-21T06:39:27;7.97;;;1.20;;
24153;SDS011;12312;53.362;-1.518;2023-11-21T06:42:11;10.82;;;1.42;;
24153;SDS011;12312;53.362;-1.518;2023-11-21T06:44:55;2.65;;;1.10;;
24153;SDS011;12312;53.362;-1.518;2023-11-21T06:47:42;3.42;;;1.10;;
24153;SDS011;12312;53.362;-1.518;2023-11-21T06:50:26;1.92;;;1.00;;
24153;SDS011;12312;53.362;-1.518;2023-11-21T06:53:10;1.80;;;0.98;;
24153;SDS011;12312;53.362;-1.518;2023-11-21T06:55:54;2.38;;;0.80;;
24153;SDS011;12312;53.362;-1.518;2023-11-21T06:58:39;4.03;;;1.33;;
24153;SDS011;12312;53.362;-1.518;2023-11-21T07:01:24;3.97;;;0.80;;
24153;SDS011;12312;53.362;-1.518;2023-11-21T07:04:08;2.03;;;1.05;;
24153;SDS011;12312;53.362;-1.518;2023-11-21T07:06:53;4.97;;;1.30;;
24153;SDS011;12312;53.362;-1.518;2023-11-21T07:09:37;2.15;;;0.73;;
24153;SDS011;12312;53.362;-1.518;2023-11-21T07:12:21;1.65;;;0.68;;
24153;SDS011;12312;53.362;-1.518;2023-11-21T07:15:07;1.80;;;1.13;;
24153;SDS011;12312;53.362;-1.518;2023-11-21T07:17:52;1.77;;;1.10;;
24153;SDS011;12312;53.362;-1.518;2023-11-21T07:20:37;2.95;;;1.35;;
24153;SDS011;12312;53.362;-1.518;2023-11-21T07:23:21;5.70;;;1.10;;
24153;SDS011;12312;53.362;-1.518;2023-11-21T07:26:06;2.90;;;1.33;;
24153;SDS011;12312;53.362;-1.518;2023-11-21T07:28:52;5.78;;;1.30;;
24153;SDS011;12312;53.362;-1.518;2023-11-21T07:31:37;3.72;;;1.33;;
24153;SDS011;12312;53.362;-1.518;2023-11-21T07:34:22;4.03;;;0.90;;
24153;SDS011;12312;53.362;-1.518;2023-11-21T07:37:05;3.33;;;0.95;;
24153;SDS011;12312;53.362;-1.518;2023-11-21T07:39:50;2.22;;;1.20;;
24153;SDS011;12312;53.362;-1.518;2023-11-21T07:42:39;5.50;;;1.30;;
24153;SDS011;12312;53.362;-1.518;2023-11-21T07:45:23;3.85;;;1.30;;
24153;SDS011;12312;53.362;-1.518;2023-11-21T07:48:07;1.77;;;1.13;;
24153;SDS011;12312;53.362;-1.518;2023-11-21T07:50:51;5.72;;;1.80;;
24153;SDS011;12312;53.362;-1.518;2023-11-21T07:53:35;3.50;;;0.90;;
24153;SDS011;12312;53.362;-1.518;2023-11-21T07:56:20;5.45;;;0.90;;
24153;SDS011;12312;53.362;-1.518;2023-11-21T07:59:03;3.65;;;1.58;;
24153;SDS011;12312;53.362;-1.518;2023-11-21T08:01:48;2.17;;;1.05;;
24153;SDS011;12312;53.362;-1.518;2023-11-21T08:04:33;2.38;;;1.20;;
24153;SDS011;12312;53.362;-1.518;2023-11-21T08:07:18;4.40;;;1.40;;
24153;SDS011;12312;53.362;-1.518;2023-11-21T08:10:02;3.60;;;1.38;;
24153;SDS011;12312;53.362;-1.518;2023-11-21T08:12:48;3.35;;;1.10;;
24153;SDS011;12312;53.362;-1.518;2023-11-21T08:15:34;2.47;;;1.30;;
24153;SDS011;12312;53.362;-1.518;2023-11-21T08:18:20;3.05;;;1.23;;
24153;SDS011;12312;53.362;-1.518;2023-11-21T08:21:05;1.73;;;0.93;;
24153;SDS011;12312;53.362;-1.518;2023-11-21T08:23:49;12.18;;;1.50;;
24153;SDS011;12312;53.362;-1.518;2023-11-21T08:26:37;4.78;;;1.20;;
24153;SDS011;12312;53.362;-1.518;2023-11-21T08:29:21;6.90;;;1.15;;
24153;SDS011;12312;53.362;-1.518;2023-11-21T08:32:07;5.93;;;1.60;;
24153;SDS011;12312;53.362;-1.518;2023-11-21T08:34:51;5.47;;;1.17;;
24153;SDS011;12312;53.362;-1.518;2023-11-21T08:37:35;1.65;;;1.08;;
24153;SDS011;12312;53.362;-1.518;2023-11-21T08:40:23;3.03;;;1.20;;
24153;SDS011;12312;53.362;-1.518;2023-11-21T08:43:07;7.68;;;1.85;;
24153;SDS011;12312;53.362;-1.518;2023-11-21T08:45:51;9.35;;;1.35;;
24153;SDS011;12312;53.362;-1.518;2023-11-21T08:48:36;5.43;;;1.40;;
24153;SDS011;12312;53.362;-1.518;2023-11-21T08:51:20;4.75;;;1.50;;
24153;SDS011;12312;53.362;-1.518;2023-11-21T08:54:04;6.78;;;2.40;;
24153;SDS011;12312;53.362;-1.518;2023-11-21T08:56:54;2.13;;;1.25;;
24153;SDS011;12312;53.362;-1.518;2023-11-21T08:59:39;6.90;;;1.20;;
24153;SDS011;12312;53.362;-1.518;2023-11-21T09:02:22;8.82;;;1.58;;
24153;SDS011;12312;53.362;-1.518;2023-11-21T09:05:08;7.13;;;1.45;;
24153;SDS011;12312;53.362;-1.518;2023-11-21T09:07:52;6.40;;;1.30;;
24153;SDS011;12312;53.362;-1.518;2023-11-21T09:10:36;7.65;;;2.05;;
24153;SDS011;12312;53.362;-1.518;2023-11-21T09:13:20;5.13;;;1.40;;
24153;SDS011;12312;53.362;-1.518;2023-11-21T09:16:04;5.28;;;1.50;;
24153;SDS011;12312;53.362;-1.518;2023-11-21T09:18:49;10.50;;;1.50;;
24153;SDS011;12312;53.362;-1.518;2023-11-21T09:21:33;5.07;;;1.33;;
24153;SDS011;12312;53.362;-1.518;2023-11-21T09:24:18;2.15;;;1.20;;
24153;SDS011;12312;53.362;-1.518;2023-11-21T09:27:02;4.50;;;1.42;;
24153;SDS011;12312;53.362;-1.518;2023-11-21T09:29:46;3.60;;;1.17;;
24153;SDS011;12312;53.362;-1.518;2023-11-21T09:32:31;5.07;;;1.80;;
24153;SDS011;12312;53.362;-1.518;2023-11-21T09:35:15;11.55;;;1.52;;
24153;SDS011;12312;53.362;-1.518;2023-11-21T09:38:00;6.20;;;1.75;;
24153;SDS011;12312;53.362;-1.518;2023-11-21T09:40:49;10.43;;;1.63;;
24153;SDS011;12312;53.362;-1.518;2023-11-21T09:43:33;6.90;;;1.40;;
24153;SDS011;12312;53.362;-1.518;2023-11-21T09:46:18;3.58;;;1.10;;
24153;SDS011;12312;53.362;-1.518;2023-11-21T09:49:06;5.32;;;1.00;;
24153;SDS011;12312;53.362;-1.518;2023-11-21T09:51:56;4.70;;;1.70;;
24153;SDS011;12312;53.362;-1.518;2023-11-21T09:54:40;6.05;;;1.50;;
24153;SDS011;12312;53.362;-1.518;2023-11-21T09:57:25;2.22;;;1.20;;
24153;SDS011;12312;53.362;-1.518;2023-11-21T10:00:10;2.00;;;1.02;;
24153;SDS011;12312;53.362;-1.518;2023-11-21T10:02:56;14.05;;;1.40;;
24153;SDS011;12312;53.362;-1.518;2023-11-21T10:05:42;4.20;;;1.15;;
24153;SDS011;12312;53.362;-1.518;2023-11-21T10:08:27;1.83;;;1.02;;
24153;SDS011;12312;53.362;-1.518;2023-11-21T10:11:13;4.13;;;0.98;;
24153;SDS011;12312;53.362;-1.518;2023-11-21T10:13:58;4.28;;;1.33;;
24153;SDS011;12312;53.362;-1.518;2023-11-21T10:16:44;6.30;;;1.58;;
24153;SDS011;12312;53.362;-1.518;2023-11-21T10:19:31;2.55;;;1.55;;
24153;SDS011;12312;53.362;-1.518;2023-11-21T10:22:16;2.75;;;1.08;;
24153;SDS011;12312;53.362;-1.518;2023-11-21T10:25:01;5.53;;;1.00;;
24153;SDS011;12312;53.362;-1.518;2023-11-21T10:27:48;3.00;;;0.95;;
24153;SDS011;12312;53.362;-1.518;2023-11-21T10:30:35;5.85;;;0.98;;
24153;SDS011;12312;53.362;-1.518;2023-11-21T10:36:11;5.30;;;1.40;;
24153;SDS011;12312;53.362;-1.518;2023-11-21T10:38:55;3.58;;;0.82;;
24153;SDS011;12312;53.362;-1.518;2023-11-21T10:41:40;4.53;;;0.88;;
24153;SDS011;12312;53.362;-1.518;2023-11-21T10:44:24;7.30;;;0.93;;
24153;SDS011;12312;53.362;-1.518;2023-11-21T10:47:09;3.75;;;1.00;;
24153;SDS011;12312;53.362;-1.518;2023-11-21T10:49:55;2.63;;;0.70;;
24153;SDS011;12312;53.362;-1.518;2023-11-21T10:52:39;2.15;;;1.20;;
24153;SDS011;12312;53.362;-1.518;2023-11-21T10:55:27;1.48;;;0.90;;
24153;SDS011;12312;53.362;-1.518;2023-11-21T10:58:11;3.97;;;0.80;;
24153;SDS011;12312;53.362;-1.518;2023-11-21T11:00:57;5.63;;;1.10;;
24153;SDS011;12312;53.362;-1.518;2023-11-21T11:03:44;5.40;;;1.23;;
24153;SDS011;12312;53.362;-1.518;2023-11-21T11:06:28;1.65;;;0.80;;
24153;SDS011;12312;53.362;-1.518;2023-11-21T11:09:13;2.85;;;1.05;;
24153;SDS011;12312;53.362;-1.518;2023-11-21T11:11:57;6.88;;;1.02;;
24153;SDS011;12312;53.362;-1.518;2023-11-21T11:14:42;5.00;;;1.15;;
24153;SDS011;12312;53.362;-1.518;2023-11-21T11:17:28;10.35;;;1.85;;
24153;SDS011;12312;53.362;-1.518;2023-11-21T11:20:12;2.72;;;0.90;;
24153;SDS011;12312;53.362;-1.518;2023-11-21T11:23:17;1.63;;;0.65;;
24153;SDS011;12312;53.362;-1.518;2023-11-21T11:29:33;4.80;;;0.93;;
24153;SDS011;12312;53.362;-1.518;2023-11-21T11:35:46;4.38;;;0.90;;
24153;SDS011;12312;53.362;-1.518;2023-11-21T11:38:44;2.05;;;0.68;;
24153;SDS011;12312;53.362;-1.518;2023-11-21T11:41:30;3.10;;;0.85;;
24153;SDS011;12312;53.362;-1.518;2023-11-21T11:47:24;2.25;;;0.95;;
24153;SDS011;12312;53.362;-1.518;2023-11-21T11:50:12;6.00;;;1.00;;
24153;SDS011;12312;53.362;-1.518;2023-11-21T11:53:17;5.70;;;1.17;;
24153;SDS011;12312;53.362;-1.518;2023-11-21T11:59:06;4.60;;;1.08;;
24153;SDS011;12312;53.362;-1.518;2023-11-21T12:01:53;4.22;;;0.85;;
24153;SDS011;12312;53.362;-1.518;2023-11-21T12:04:37;4.78;;;1.08;;
24153;SDS011;12312;53.362;-1.518;2023-11-21T12:07:24;7.00;;;0.85;;
24153;SDS011;12312;53.362;-1.518;2023-11-21T12:10:26;3.13;;;0.77;;
24153;SDS011;12312;53.362;-1.518;2023-11-21T12:13:11;1.98;;;1.00;;
24153;SDS011;12312;53.362;-1.518;2023-11-21T12:15:56;3.65;;;0.85;;
24153;SDS011;12312;53.362;-1.518;2023-11-21T12:18:40;4.00;;;0.82;;
24153;SDS011;12312;53.362;-1.518;2023-11-21T12:21:25;2.03;;;0.73;;
24153;SDS011;12312;53.362;-1.518;2023-11-21T12:24:10;2.30;;;0.68;;
24153;SDS011;12312;53.362;-1.518;2023-11-21T12:26:57;9.90;;;0.98;;
24153;SDS011;12312;53.362;-1.518;2023-11-21T12:29:40;3.03;;;0.88;;
24153;SDS011;12312;53.362;-1.518;2023-11-21T12:32:24;5.97;;;0.73;;
24153;SDS011;12312;53.362;-1.518;2023-11-21T12:35:09;1.83;;;0.73;;
24153;SDS011;12312;53.362;-1.518;2023-11-21T12:37:55;5.63;;;0.93;;
24153;SDS011;12312;53.362;-1.518;2023-11-21T12:40:40;1.13;;;0.55;;
24153;SDS011;12312;53.362;-1.518;2023-11-21T12:43:24;5.45;;;0.90;;
24153;SDS011;12312;53.362;-1.518;2023-11-21T12:46:12;2.80;;;0.82;;
24153;SDS011;12312;53.362;-1.518;2023-11-21T12:48:57;2.35;;;0.70;;
24153;SDS011;12312;53.362;-1.518;2023-11-21T12:51:41;1.20;;;0.70;;
24153;SDS011;12312;53.362;-1.518;2023-11-21T12:54:25;10.02;;;1.73;;
24153;SDS011;12312;53.362;-1.518;2023-11-21T12:57:09;4.05;;;1.02;;
24153;SDS011;12312;53.362;-1.518;2023-11-21T12:59:57;2.20;;;0.82;;
24153;SDS011;12312;53.362;-1.518;2023-11-21T13:02:41;1.67;;;0.60;;
24153;SDS011;12312;53.362;-1.518;2023-11-21T13:05:29;5.93;;;1.35;;
24153;SDS011;12312;53.362;-1.518;2023-11-21T13:11:03;4.45;;;1.02;;
24153;SDS011;12312;53.362;-1.518;2023-11-21T13:13:51;3.25;;;1.13;;
24153;SDS011;12312;53.362;-1.518;2023-11-21T13:16:37;3.78;;;1.10;;
24153;SDS011;12312;53.362;-1.518;2023-11-21T13:19:22;2.45;;;0.63;;
24153;SDS011;12312;53.362;-1.518;2023-11-21T13:22:08;5.65;;;1.08;;
24153;SDS011;12312;53.362;-1.518;2023-11-21T13:24:54;1.40;;;0.70;;
24153;SDS011;12312;53.362;-1.518;2023-11-21T13:27:38;1.05;;;0.80;;
24153;SDS011;12312;53.362;-1.518;2023-11-21T13:30:23;4.00;;;0.75;;
24153;SDS011;12312;53.362;-1.518;2023-11-21T13:33:11;1.92;;;0.57;;
24153;SDS011;12312;53.362;-1.518;2023-11-21T13:36:01;6.63;;;0.98;;
24153;SDS011;12312;53.362;-1.518;2023-11-21T13:38:46;3.15;;;0.93;;
24153;SDS011;12312;53.362;-1.518;2023-11-21T13:41:30;5.60;;;1.10;;
24153;SDS011;12312;53.362;-1.518;2023-11-21T13:44:14;4.18;;;0.95;;
24153;SDS011;12312;53.362;-1.518;2023-11-21T13:47:19;2.15;;;0.85;;
24153;SDS011;12312;53.362;-1.518;2023-11-21T13:50:04;7.13;;;1.02;;
24153;SDS011;12312;53.362;-1.518;2023-11-21T13:52:57;5.90;;;1.67;;
24153;SDS011;12312;53.362;-1.518;2023-11-21T13:55:55;2.33;;;0.70;;
24153;SDS011;12312;53.362;-1.518;2023-11-21T13:58:43;4.80;;;1.05;;
24153;SDS011;12312;53.362;-1.518;2023-11-21T14:01:35;2.08;;;0.80;;
24153;SDS011;12312;53.362;-1.518;2023-11-21T14:04:37;1.77;;;0.80;;
24153;SDS011;12312;53.362;-1.518;2023-11-21T14:07:21;1.52;;;0.88;;
24153;SDS011;12312;53.362;-1.518;2023-11-21T14:10:16;7.73;;;1.10;;
24153;SDS011;12312;53.362;-1.518;2023-11-21T14:13:06;0.77;;;0.63;;
24153;SDS011;12312;53.362;-1.518;2023-11-21T14:15:50;3.25;;;1.00;;
24153;SDS011;12312;53.362;-1.518;2023-11-21T14:18:41;4.22;;;1.20;;
24153;SDS011;12312;53.362;-1.518;2023-11-21T14:21:36;2.10;;;0.60;;
24153;SDS011;12312;53.362;-1.518;2023-11-21T14:24:20;3.30;;;1.17;;
24153;SDS011;12312;53.362;-1.518;2023-11-21T14:27:04;0.98;;;0.73;;
24153;SDS011;12312;53.362;-1.518;2023-11-21T14:29:49;2.47;;;1.00;;
24153;SDS011;12312;53.362;-1.518;2023-11-21T14:32:34;1.60;;;0.80;;
24153;SDS011;12312;53.362;-1.518;2023-11-21T14:35:18;1.10;;;0.60;;
24153;SDS011;12312;53.362;-1.518;2023-11-21T14:38:03;4.82;;;0.93;;
24153;SDS011;12312;53.362;-1.518;2023-11-21T14:40:48;4.60;;;0.93;;
24153;SDS011;12312;53.362;-1.518;2023-11-21T14:43:33;2.28;;;1.63;;
24153;SDS011;12312;53.362;-1.518;2023-11-21T14:46:19;1.75;;;0.93;;
24153;SDS011;12312;53.362;-1.518;2023-11-21T14:49:03;1.55;;;0.90;;
24153;SDS011;12312;53.362;-1.518;2023-11-21T14:52:02;2.95;;;0.90;;
24153;SDS011;12312;53.362;-1.518;2023-11-21T14:54:51;3.38;;;1.10;;
24153;SDS011;12312;53.362;-1.518;2023-11-21T14:57:48;1.90;;;0.82;;
24153;SDS011;12312;53.362;-1.518;2023-11-21T15:00:35;1.30;;;0.65;;
24153;SDS011;12312;53.362;-1.518;2023-11-21T15:03:19;2.95;;;1.08;;
24153;SDS011;12312;53.362;-1.518;2023-11-21T15:06:26;0.93;;;0.80;;
24153;SDS011;12312;53.362;-1.518;2023-11-21T15:09:10;5.05;;;0.88;;
24153;SDS011;12312;53.362;-1.518;2023-11-21T15:11:54;5.35;;;1.10;;
24153;SDS011;12312;53.362;-1.518;2023-11-21T15:14:44;2.15;;;0.80;;
24153;SDS011;12312;53.362;-1.518;2023-11-21T15:17:29;3.35;;;0.90;;
24153;SDS011;12312;53.362;-1.518;2023-11-21T15:20:16;3.60;;;1.40;;
24153;SDS011;12312;53.362;-1.518;2023-11-21T15:23:02;1.55;;;1.02;;
24153;SDS011;12312;53.362;-1.518;2023-11-21T15:28:32;6.43;;;1.15;;
24153;SDS011;12312;53.362;-1.518;2023-11-21T15:31:17;2.45;;;0.80;;
24153;SDS011;12312;53.362;-1.518;2023-11-21T15:34:05;3.35;;;1.08;;
24153;SDS011;12312;53.362;-1.518;2023-11-21T15:36:49;1.88;;;1.20;;
24153;SDS011;12312;53.362;-1.518;2023-11-21T15:39:37;5.07;;;1.10;;
24153;SDS011;12312;53.362;-1.518;2023-11-21T15:42:21;8.77;;;1.48;;
24153;SDS011;12312;53.362;-1.518;2023-11-21T15:45:06;7.20;;;1.08;;
24153;SDS011;12312;53.362;-1.518;2023-11-21T15:47:51;1.13;;;1.02;;
24153;SDS011;12312;53.362;-1.518;2023-11-21T15:50:37;1.90;;;1.30;;
24153;SDS011;12312;53.362;-1.518;2023-11-21T15:53:21;1.95;;;1.23;;
24153;SDS011;12312;53.362;-1.518;2023-11-21T15:56:05;2.35;;;1.20;;
24153;SDS011;12312;53.362;-1.518;2023-11-21T15:58:54;8.93;;;2.75;;
24153;SDS011;12312;53.362;-1.518;2023-11-21T16:01:38;10.43;;;3.08;;
24153;SDS011;12312;53.362;-1.518;2023-11-21T16:04:27;26.60;;;7.43;;
24153;SDS011;12312;53.362;-1.518;2023-11-21T16:07:11;12.13;;;2.67;;
24153;SDS011;12312;53.362;-1.518;2023-11-21T16:09:55;14.52;;;4.03;;
24153;SDS011;12312;53.362;-1.518;2023-11-21T16:12:40;29.20;;;7.28;;
24153;SDS011;12312;53.362;-1.518;2023-11-21T16:15:24;2.10;;;1.40;;
24153;SDS011;12312;53.362;-1.518;2023-11-21T16:18:10;4.53;;;1.40;;
24153;SDS011;12312;53.362;-1.518;2023-11-21T16:20:54;11.60;;;2.78;;
24153;SDS011;12312;53.362;-1.518;2023-11-21T16:23:38;7.25;;;2.80;;
24153;SDS011;12312;53.362;-1.518;2023-11-21T16:26:22;4.47;;;1.58;;
24153;SDS011;12312;53.362;-1.518;2023-11-21T16:29:06;11.07;;;4.35;;
24153;SDS011;12312;53.362;-1.518;2023-11-21T16:31:50;13.98;;;5.78;;
24153;SDS011;12312;53.362;-1.518;2023-11-21T16:34:36;5.32;;;1.95;;
24153;SDS011;12312;53.362;-1.518;2023-11-21T16:37:20;5.15;;;1.80;;
24153;SDS011;12312;53.362;-1.518;2023-11-21T16:40:04;3.05;;;1.83;;
24153;SDS011;12312;53.362;-1.518;2023-11-21T16:42:52;7.97;;;2.05;;